Time;durP1;ratioP1;P1;durP2;ratioP2;P2;SDS_P1;SDS_P2;PMS_P1;PMS_P2;Temp;Humidity;BMP_temperature;BMP_pressure;BME280_temperature;BME280_humidity;BME280_pressure;Samples;Min_cycle;Max_cycle;Signal;HPM_P1;HPM_P2
2021/05/25 00:02:09;;;;;;;0.90;0.90;;;15.20;99.90;;;;;;4898875;29;20405;-80
2021/05/25 00:04:35;;;;;;;0.90;0.90;;;15.20;99.90;;;;;;4885109;29;20401;-83
2021/05/25 00:07:01;;;;;;;0.90;0.90;;;15.20;99.90;;;;;;4912659;29;20411;-81
2021/05/25 00:09:26;;;;;;;0.90;0.90;;;15.10;99.90;;;;;;4876660;29;20410;-80
2021/05/25 00:11:52;;;;;;;0.87;0.87;;;15.10;99.90;;;;;;4908506;29;20414;-80
2021/05/25 00:14:20;;;;;;;0.98;0.90;;;15.00;99.90;;;;;;4909137;29;20407;-80
2021/05/25 00:16:49;;;;;;;1.20;1.07;;;15.00;99.90;;;;;;4909750;29;20419;-81
2021/05/25 00:19:15;;;;;;;0.90;0.90;;;15.00;99.90;;;;;;4909332;29;20418;-79
2021/05/25 00:21:41;;;;;;;0.82;0.82;;;14.90;99.90;;;;;;4919882;29;20396;-79
2021/05/25 00:24:07;;;;;;;0.93;0.93;;;14.90;99.90;;;;;;4891870;29;20752;-79
2021/05/25 00:26:33;;;;;;;1.10;1.00;;;14.90;99.90;;;;;;4882784;29;20403;-79
2021/05/25 00:28:58;;;;;;;0.90;0.90;;;14.90;99.90;;;;;;4929196;29;20413;-81
2021/05/25 00:31:24;;;;;;;0.88;0.88;;;14.90;99.90;;;;;;4895380;29;20405;-77
2021/05/25 00:33:50;;;;;;;1.00;1.00;;;14.90;99.90;;;;;;4929047;29;20404;-78
2021/05/25 00:36:15;;;;;;;1.70;1.10;;;14.80;99.90;;;;;;4924602;29;20517;-78
2021/05/25 00:38:41;;;;;;;0.90;0.90;;;14.80;99.90;;;;;;4920252;29;20398;-81
2021/05/25 00:41:07;;;;;;;0.90;0.90;;;14.70;99.90;;;;;;4873748;29;20412;-82
2021/05/25 00:43:32;;;;;;;0.87;0.87;;;14.70;99.90;;;;;;4886476;29;20396;-79
2021/05/25 00:45:58;;;;;;;0.77;0.77;;;14.70;99.90;;;;;;4898805;29;21182;-77
2021/05/25 00:48:23;;;;;;;1.20;1.10;;;14.70;99.90;;;;;;4904260;29;21140;-79
2021/05/25 00:50:49;;;;;;;0.95;0.95;;;14.60;99.90;;;;;;4885334;29;20443;-77
2021/05/25 00:53:15;;;;;;;0.70;0.70;;;14.60;99.90;;;;;;4911023;29;20411;-77
2021/05/25 00:55:41;;;;;;;0.77;0.77;;;14.60;99.90;;;;;;4918575;29;20483;-81
2021/05/25 00:58:08;;;;;;;0.90;0.90;;;14.60;99.90;;;;;;4907690;29;20423;-80
2021/05/25 01:00:37;;;;;;;0.90;0.90;;;14.50;99.90;;;;;;4913035;29;20433;-84
2021/05/25 01:03:03;;;;;;;0.95;0.90;;;14.50;99.90;;;;;;4889314;29;20399;-79
2021/05/25 01:05:28;;;;;;;1.00;1.00;;;14.50;99.90;;;;;;4899397;29;20403;-78
2021/05/25 01:07:54;;;;;;;0.90;0.90;;;14.50;99.90;;;;;;4898959;29;20562;-79
2021/05/25 01:10:27;;;;;;;0.67;0.67;;;14.50;99.90;;;;;;4935956;29;20466;-81
2021/05/25 01:12:57;;;;;;;0.90;0.90;;;14.50;99.90;;;;;;4905664;29;20491;-79
2021/05/25 01:15:23;;;;;;;0.98;0.98;;;14.50;99.90;;;;;;4897667;29;20466;-79
2021/05/25 01:17:51;;;;;;;0.75;0.75;;;14.50;99.90;;;;;;4899438;29;20490;-80
2021/05/25 01:20:18;;;;;;;0.90;0.90;;;14.50;99.90;;;;;;4888964;29;20443;-78
2021/05/25 01:22:44;;;;;;;0.80;0.80;;;14.50;99.90;;;;;;4899714;29;20478;-81
2021/05/25 01:25:11;;;;;;;0.90;0.90;;;14.50;99.90;;;;;;4919102;29;20940;-78
2021/05/25 01:27:36;;;;;;;2.00;0.90;;;14.50;99.90;;;;;;4893548;29;20414;-80
2021/05/25 01:30:03;;;;;;;1.10;1.10;;;14.40;99.90;;;;;;4892898;29;20399;-79
2021/05/25 01:32:29;;;;;;;0.93;0.93;;;14.40;99.90;;;;;;4893633;29;20425;-79
2021/05/25 01:34:54;;;;;;;0.90;0.90;;;14.40;99.90;;;;;;4905497;29;20490;-78
2021/05/25 01:37:22;;;;;;;0.90;0.90;;;14.40;99.90;;;;;;4886909;29;20913;-81
2021/05/25 01:39:52;;;;;;;1.30;1.20;;;14.40;99.90;;;;;;4884607;29;20465;-80
2021/05/25 01:42:18;;;;;;;0.90;0.90;;;14.40;99.90;;;;;;4919868;29;20403;-79
2021/05/25 01:44:44;;;;;;;0.98;0.98;;;14.40;99.90;;;;;;4892334;29;21050;-80
2021/05/25 01:47:09;;;;;;;1.00;0.90;;;14.50;99.90;;;;;;4903907;29;20773;-78
2021/05/25 01:49:35;;;;;;;0.90;0.90;;;14.50;99.90;;;;;;4901516;29;20413;-80
2021/05/25 01:52:01;;;;;;;1.10;1.00;;;14.50;99.90;;;;;;4894479;29;20411;-83
2021/05/25 01:54:26;;;;;;;0.82;0.82;;;14.50;99.90;;;;;;4907249;29;20393;-78
2021/05/25 01:56:52;;;;;;;0.80;0.80;;;14.40;99.90;;;;;;4910084;29;20391;-77
2021/05/25 01:59:17;;;;;;;0.90;0.90;;;14.40;99.90;;;;;;4884869;29;20410;-77
2021/05/25 02:01:43;;;;;;;0.90;0.90;;;14.40;99.90;;;;;;4925648;29;20403;-77
2021/05/25 02:04:09;;;;;;;1.10;0.90;;;14.40;99.90;;;;;;4913562;29;20407;-77
2021/05/25 02:06:34;;;;;;;1.00;1.00;;;14.40;99.90;;;;;;4874104;29;20423;-79
2021/05/25 02:09:02;;;;;;;0.77;0.77;;;14.40;99.90;;;;;;4881098;29;20423;-79
2021/05/25 02:11:28;;;;;;;1.33;0.90;;;14.30;99.90;;;;;;4906368;29;20403;-78
2021/05/25 02:13:53;;;;;;;0.70;0.70;;;14.20;99.90;;;;;;4907092;29;20402;-79
2021/05/25 02:16:19;;;;;;;0.70;0.70;;;14.10;99.90;;;;;;4885426;29;20420;-78
2021/05/25 02:18:46;;;;;;;0.90;0.60;;;14.10;99.90;;;;;;4903506;29;20399;-79
2021/05/25 02:21:13;;;;;;;2.57;1.03;;;14.10;99.90;;;;;;4898557;29;20422;-78
2021/05/25 02:23:39;;;;;;;0.83;0.70;;;14.10;99.90;;;;;;4913325;29;20407;-77
2021/05/25 02:26:05;;;;;;;0.40;0.40;;;14.10;99.90;;;;;;4919014;29;20403;-80
2021/05/25 02:28:31;;;;;;;0.80;0.80;;;14.10;99.90;;;;;;4914633;29;20401;-78
2021/05/25 02:30:56;;;;;;;0.70;0.70;;;14.10;99.90;;;;;;4906258;29;20500;-79
2021/05/25 02:33:23;;;;;;;2.40;0.60;;;14.00;99.90;;;;;;4895114;29;20897;-79
2021/05/25 02:35:50;;;;;;;0.70;0.70;;;14.10;99.90;;;;;;4918631;29;20510;-79
2021/05/25 02:38:16;;;;;;;1.10;0.80;;;14.00;99.90;;;;;;4896570;29;20403;-80
2021/05/25 02:40:46;;;;;;;0.80;0.80;;;14.10;99.90;;;;;;4912950;29;20477;-79
2021/05/25 02:43:12;;;;;;;1.10;0.83;;;14.10;99.90;;;;;;4900846;29;20398;-78
2021/05/25 02:45:37;;;;;;;0.90;0.90;;;14.00;99.90;;;;;;4893128;29;21390;-78
2021/05/25 02:48:05;;;;;;;0.70;0.70;;;14.00;99.90;;;;;;4896910;29;20399;-79
2021/05/25 02:50:31;;;;;;;0.70;0.70;;;13.90;99.90;;;;;;4871673;29;20415;-78
2021/05/25 02:52:56;;;;;;;0.60;0.60;;;13.90;99.90;;;;;;4924469;29;20405;-80
2021/05/25 02:55:24;;;;;;;0.67;0.67;;;13.90;99.90;;;;;;4904735;29;20399;-82
2021/05/25 02:57:49;;;;;;;0.82;0.82;;;13.90;99.90;;;;;;4917001;29;20419;-77
2021/05/25 03:00:20;;;;;;;0.70;0.70;;;13.80;99.90;;;;;;4896088;29;20794;-79
2021/05/25 03:02:46;;;;;;;0.68;0.68;;;13.80;99.90;;;;;;4902840;29;20395;-79
2021/05/25 03:05:12;;;;;;;0.65;0.65;;;13.80;99.90;;;;;;4909442;29;20473;-79
2021/05/25 03:07:37;;;;;;;0.70;0.70;;;13.80;99.90;;;;;;4895977;29;20442;-82
2021/05/25 03:10:07;;;;;;;0.60;0.60;;;13.70;99.90;;;;;;4919948;29;20418;-83
2021/05/25 03:12:33;;;;;;;0.52;0.52;;;13.70;99.90;;;;;;4894864;29;20969;-79
2021/05/25 03:14:59;;;;;;;0.80;0.80;;;13.70;99.90;;;;;;4906009;29;20405;-78
2021/05/25 03:17:25;;;;;;;0.80;0.80;;;13.70;99.90;;;;;;4912280;29;20391;-77
2021/05/25 03:19:50;;;;;;;0.70;0.70;;;13.70;99.90;;;;;;4901973;29;20932;-84
2021/05/25 03:22:17;;;;;;;0.88;0.88;;;13.70;99.90;;;;;;4876887;29;21284;-85
2021/05/25 03:24:43;;;;;;;0.93;0.90;;;13.70;99.90;;;;;;4871681;29;20416;-80
2021/05/25 03:27:09;;;;;;;0.60;0.60;;;13.70;99.90;;;;;;4885899;29;20404;-78
2021/05/25 03:29:34;;;;;;;0.90;0.90;;;13.70;99.90;;;;;;4908913;29;20440;-79
2021/05/25 03:32:00;;;;;;;0.77;0.77;;;13.70;99.90;;;;;;4876384;29;20410;-80
2021/05/25 03:34:26;;;;;;;0.50;0.50;;;13.70;99.90;;;;;;4882639;29;20479;-78
2021/05/25 03:36:51;;;;;;;0.80;0.80;;;13.70;99.90;;;;;;4879604;29;20540;-80
2021/05/25 03:39:17;;;;;;;0.68;0.68;;;13.70;99.90;;;;;;4901821;29;20418;-83
2021/05/25 03:41:43;;;;;;;0.80;0.80;;;13.70;99.90;;;;;;4923785;29;20404;-79
2021/05/25 03:44:13;;;;;;;1.00;1.00;;;13.80;99.90;;;;;;4897289;29;20399;-81
2021/05/25 03:46:42;;;;;;;0.80;0.80;;;13.80;99.90;;;;;;4896754;29;20414;-80
2021/05/25 03:49:08;;;;;;;0.60;0.60;;;13.80;99.90;;;;;;4897127;29;20404;-80
2021/05/25 03:51:34;;;;;;;0.93;0.93;;;13.80;99.90;;;;;;4890282;29;20478;-79
2021/05/25 03:54:04;;;;;;;0.80;0.80;;;13.80;99.90;;;;;;4908845;29;20921;-79
2021/05/25 03:56:34;;;;;;;0.80;0.80;;;13.80;99.90;;;;;;4880130;29;20432;-79
2021/05/25 03:59:00;;;;;;;0.93;0.90;;;13.80;99.90;;;;;;4888610;29;20409;-80
2021/05/25 04:01:27;;;;;;;0.80;0.80;;;13.80;99.90;;;;;;4877350;29;20415;-79
2021/05/25 04:03:53;;;;;;;1.08;0.95;;;13.80;99.90;;;;;;4874214;29;20399;-81
2021/05/25 04:06:19;;;;;;;0.93;0.90;;;13.80;99.90;;;;;;4886372;29;20399;-80
2021/05/25 04:08:45;;;;;;;0.90;0.90;;;13.70;99.90;;;;;;4912109;29;20478;-77
2021/05/25 04:11:11;;;;;;;1.20;0.88;;;13.70;99.90;;;;;;4895509;29;20430;-79
2021/05/25 04:13:36;;;;;;;0.93;0.93;;;13.70;99.90;;;;;;4926536;29;20407;-80
2021/05/25 04:16:02;;;;;;;0.90;0.90;;;13.60;99.90;;;;;;4903272;29;20420;-82
2021/05/25 04:18:28;;;;;;;2.47;2.25;;;13.60;99.90;;;;;;4915734;29;20412;-81
2021/05/25 04:20:54;;;;;;;1.20;1.00;;;13.50;99.90;;;;;;4902166;29;20556;-81
2021/05/25 04:23:20;;;;;;;0.70;0.70;;;13.50;99.90;;;;;;4928239;29;20400;-79
2021/05/25 04:25:45;;;;;;;1.08;0.70;;;13.40;99.90;;;;;;4922514;29;20395;-83
2021/05/25 04:28:11;;;;;;;0.90;0.90;;;13.50;99.90;;;;;;4924525;29;20388;-88
2021/05/25 04:30:37;;;;;;;1.30;0.95;;;13.50;99.90;;;;;;4929567;29;20493;-85
2021/05/25 04:33:03;;;;;;;1.02;1.02;;;13.40;99.90;;;;;;4898460;29;20388;-84
2021/05/25 04:35:29;;;;;;;1.95;0.88;;;13.40;99.90;;;;;;4913347;29;20440;-82
2021/05/25 04:37:57;;;;;;;0.90;0.90;;;13.20;99.90;;;;;;4912688;29;20410;-85
2021/05/25 04:40:22;;;;;;;0.82;0.82;;;13.10;99.90;;;;;;4913445;29;20419;-81
2021/05/25 04:42:48;;;;;;;0.90;0.90;;;13.10;99.90;;;;;;4902647;29;20427;-81
2021/05/25 04:45:14;;;;;;;0.80;0.80;;;13.00;99.90;;;;;;4898029;29;20415;-79
2021/05/25 04:47:40;;;;;;;0.90;0.90;;;13.00;99.90;;;;;;4907215;29;20406;-78
2021/05/25 04:50:06;;;;;;;1.00;1.00;;;13.00;99.90;;;;;;4915363;29;20403;-80
2021/05/25 04:52:33;;;;;;;0.90;0.90;;;13.00;99.90;;;;;;4897784;29;20754;-80
2021/05/25 04:55:00;;;;;;;1.75;1.15;;;13.00;99.90;;;;;;4898508;29;20396;-82
2021/05/25 04:57:26;;;;;;;0.98;0.98;;;13.00;99.90;;;;;;4914303;29;20431;-81
2021/05/25 04:59:51;;;;;;;0.90;0.90;;;13.10;99.90;;;;;;4883484;29;20501;-78
2021/05/25 05:02:17;;;;;;;1.00;1.00;;;13.10;99.90;;;;;;4923523;29;20423;-87
2021/05/25 05:04:43;;;;;;;1.10;1.10;;;13.10;99.90;;;;;;4899356;29;20394;-83
2021/05/25 05:07:10;;;;;;;1.17;1.10;;;13.10;99.90;;;;;;4875802;29;20387;-87
2021/05/25 05:09:36;;;;;;;2.90;1.10;;;13.20;99.90;;;;;;4902772;29;20433;-88
2021/05/25 05:12:01;;;;;;;1.10;1.10;;;13.20;99.90;;;;;;4893009;29;20447;-90
2021/05/25 05:14:27;;;;;;;1.02;1.02;;;13.20;99.90;;;;;;4914372;29;20408;-87
2021/05/25 05:16:53;;;;;;;1.00;1.00;;;13.20;99.90;;;;;;4893147;29;20395;-87
2021/05/25 05:19:18;;;;;;;1.35;1.13;;;13.20;99.90;;;;;;4918895;29;20428;-90
2021/05/25 05:21:46;;;;;;;0.80;0.80;;;13.20;99.90;;;;;;4915617;29;20403;-88
2021/05/25 05:24:12;;;;;;;1.17;1.13;;;13.20;99.90;;;;;;4895755;29;20558;-89
2021/05/25 05:26:38;;;;;;;0.98;0.98;;;13.30;99.90;;;;;;4933227;29;20425;-87
2021/05/25 05:29:03;;;;;;;1.20;1.10;;;13.20;99.90;;;;;;4913131;29;20426;-89
2021/05/25 05:31:29;;;;;;;1.30;0.88;;;13.30;99.90;;;;;;4912153;29;20483;-87
2021/05/25 05:33:55;;;;;;;1.20;1.10;;;13.30;99.90;;;;;;4916978;29;20427;-88
2021/05/25 05:36:20;;;;;;;0.90;0.90;;;13.20;99.90;;;;;;4923381;29;20392;-86
2021/05/25 05:38:46;;;;;;;1.20;1.10;;;13.30;99.90;;;;;;4930911;29;20402;-87
2021/05/25 05:41:13;;;;;;;1.98;1.02;;;13.30;99.90;;;;;;4905199;29;20409;-88
2021/05/25 05:43:38;;;;;;;0.90;0.90;;;13.30;99.90;;;;;;4907634;29;20402;-87
2021/05/25 05:46:04;;;;;;;2.30;1.05;;;13.30;99.90;;;;;;4920359;29;20781;-88
2021/05/25 05:48:30;;;;;;;0.90;0.90;;;13.30;99.90;;;;;;4910111;29;20408;-87
2021/05/25 05:50:56;;;;;;;1.15;1.05;;;13.30;99.90;;;;;;4908858;29;20420;-85
2021/05/25 05:53:21;;;;;;;1.02;1.00;;;13.20;99.90;;;;;;4898551;29;20399;-90
2021/05/25 05:55:47;;;;;;;1.10;1.10;;;13.20;99.90;;;;;;4901394;29;20403;-90
2021/05/25 05:58:13;;;;;;;0.90;0.90;;;13.40;99.90;;;;;;4921186;29;20423;-87
2021/05/25 06:00:41;;;;;;;1.25;0.93;;;13.20;99.90;;;;;;4902533;29;20458;-88
2021/05/25 06:03:10;;;;;;;1.38;1.27;;;13.10;99.90;;;;;;4932238;29;20518;-91
2021/05/25 06:05:36;;;;;;;0.95;0.95;;;13.10;99.90;;;;;;4903806;29;20412;-89
2021/05/25 06:08:03;;;;;;;0.97;0.90;;;13.10;99.90;;;;;;4903976;29;20452;-85
2021/05/25 06:10:30;;;;;;;0.85;0.85;;;13.10;99.90;;;;;;4913135;29;20418;-89
2021/05/25 06:12:56;;;;;;;0.80;0.80;;;13.00;99.90;;;;;;4903063;29;21734;-85
2021/05/25 06:15:22;;;;;;;3.22;1.15;;;13.10;99.90;;;;;;4918543;29;20433;-84
2021/05/25 06:17:48;;;;;;;0.90;0.90;;;13.10;99.90;;;;;;4902955;29;20397;-88
2021/05/25 06:20:14;;;;;;;0.80;0.80;;;13.00;99.90;;;;;;4887639;29;20921;-86
2021/05/25 06:22:39;;;;;;;0.95;0.95;;;13.00;99.90;;;;;;4910828;29;20395;-94
2021/05/25 06:25:06;;;;;;;0.80;0.80;;;13.00;99.90;;;;;;4891310;29;20406;-91
2021/05/25 06:27:32;;;;;;;1.27;0.95;;;13.00;99.90;;;;;;4924360;29;20475;-92
2021/05/25 06:29:58;;;;;;;0.85;0.85;;;13.00;99.90;;;;;;4888747;29;20462;-88
2021/05/25 06:32:23;;;;;;;0.90;0.90;;;13.00;99.90;;;;;;4891660;29;20535;-89
2021/05/25 06:34:51;;;;;;;0.63;0.63;;;12.90;99.90;;;;;;4897319;29;20392;-89
2021/05/25 06:37:16;;;;;;;0.73;0.73;;;12.90;99.90;;;;;;4916763;29;20406;-93
2021/05/25 06:39:42;;;;;;;0.80;0.80;;;13.00;99.90;;;;;;4897003;29;20404;-90
2021/05/25 06:42:09;;;;;;;1.00;1.00;;;13.00;99.90;;;;;;4900212;29;20482;-88
2021/05/25 06:44:35;;;;;;;1.00;0.80;;;13.00;99.90;;;;;;4910211;29;20430;-85
2021/05/25 06:47:01;;;;;;;0.60;0.60;;;13.10;99.90;;;;;;4896751;29;20412;-89
2021/05/25 06:49:27;;;;;;;0.77;0.77;;;13.20;99.90;;;;;;4889265;29;20388;-86
2021/05/25 06:51:52;;;;;;;0.77;0.77;;;13.30;99.90;;;;;;4910866;29;20403;-88
2021/05/25 06:54:18;;;;;;;0.77;0.77;;;13.30;99.90;;;;;;4908723;29;20436;-87
2021/05/25 06:56:44;;;;;;;1.00;0.90;;;13.30;99.90;;;;;;4902228;29;20395;-89
2021/05/25 06:59:09;;;;;;;0.98;0.80;;;13.30;99.90;;;;;;4904014;29;20401;-84
2021/05/25 07:01:35;;;;;;;0.60;0.60;;;13.30;99.90;;;;;;4910732;29;20407;-87
2021/05/25 07:04:00;;;;;;;0.80;0.80;;;13.30;99.90;;;;;;4909960;29;20419;-85
2021/05/25 07:06:26;;;;;;;0.60;0.60;;;13.50;99.90;;;;;;4908808;29;20409;-88
2021/05/25 07:08:52;;;;;;;0.80;0.80;;;13.40;99.90;;;;;;4891517;29;20440;-86
2021/05/25 07:11:17;;;;;;;0.93;0.83;;;13.40;99.90;;;;;;4898587;29;20499;-89
2021/05/25 07:13:43;;;;;;;4.07;1.80;;;13.40;99.90;;;;;;4910732;29;20403;-90
2021/05/25 07:16:10;;;;;;;1.50;0.90;;;13.40;99.90;;;;;;4890801;29;20425;-89
2021/05/25 07:18:36;;;;;;;1.83;0.75;;;13.50;99.90;;;;;;4923475;29;20395;-89
2021/05/25 07:21:02;;;;;;;2.08;0.77;;;13.50;99.90;;;;;;4928381;29;20417;-86
2021/05/25 07:23:28;;;;;;;0.60;0.60;;;13.50;99.90;;;;;;4896779;29;20438;-86
2021/05/25 07:25:54;;;;;;;0.83;0.77;;;13.50;99.90;;;;;;4893464;29;20433;-87
2021/05/25 07:28:19;;;;;;;0.70;0.70;;;13.50;99.90;;;;;;4899599;29;20410;-88
2021/05/25 07:30:47;;;;;;;0.70;0.70;;;13.50;99.90;;;;;;4929416;29;20404;-85
2021/05/25 07:33:13;;;;;;;0.70;0.70;;;13.50;99.90;;;;;;4900225;29;20415;-89
2021/05/25 07:35:38;;;;;;;0.80;0.80;;;13.50;99.90;;;;;;4896617;29;20402;-85
2021/05/25 07:38:04;;;;;;;0.68;0.68;;;13.40;99.90;;;;;;4912582;29;20444;-88
2021/05/25 07:40:30;;;;;;;0.80;0.80;;;13.40;99.90;;;;;;4905034;29;20407;-84
2021/05/25 07:42:55;;;;;;;1.13;0.98;;;13.40;99.90;;;;;;4912362;29;20404;-93
2021/05/25 07:45:21;;;;;;;0.70;0.70;;;13.30;99.90;;;;;;4910164;29;20398;-87
2021/05/25 07:47:47;;;;;;;0.63;0.63;;;13.40;99.90;;;;;;4905631;29;20403;-83
2021/05/25 07:50:16;;;;;;;0.70;0.70;;;13.50;99.90;;;;;;4902414;29;20399;-85
2021/05/25 07:52:46;;;;;;;0.60;0.60;;;13.60;99.90;;;;;;4900626;29;20463;-87
2021/05/25 07:55:12;;;;;;;0.70;0.70;;;13.70;99.90;;;;;;4891925;29;20537;-85
2021/05/25 07:57:39;;;;;;;0.70;0.63;;;13.90;99.90;;;;;;4912008;29;20413;-88
2021/05/25 08:00:06;;;;;;;1.20;0.88;;;13.90;99.90;;;;;;4893248;29;20427;-86
2021/05/25 08:02:38;;;;;;;0.70;0.70;;;14.00;99.90;;;;;;4918661;29;20385;-89
2021/05/25 08:05:05;;;;;;;0.70;0.70;;;14.10;99.90;;;;;;4892719;29;20400;-92
2021/05/25 08:07:31;;;;;;;0.70;0.70;;;14.10;99.90;;;;;;4910345;29;20400;-88
2021/05/25 08:09:56;;;;;;;0.70;0.70;;;14.20;99.90;;;;;;4900798;29;20554;-84
2021/05/25 08:12:22;;;;;;;0.63;0.63;;;14.20;99.90;;;;;;4893268;29;20399;-87
2021/05/25 08:14:48;;;;;;;2.00;0.80;;;14.30;99.90;;;;;;4897010;29;20431;-87
2021/05/25 08:17:34;;;;;;;0.93;0.70;;;14.40;99.90;;;;;;4900325;29;20424;-91
2021/05/25 08:20:17;;;;;;;0.60;0.60;;;14.30;99.90;;;;;;4902675;29;20436;-86
2021/05/25 08:22:44;;;;;;;0.70;0.70;;;14.30;99.90;;;;;;4916364;29;20433;-89
2021/05/25 08:25:10;;;;;;;0.60;0.60;;;14.40;99.90;;;;;;4908847;29;20396;-88
2021/05/25 08:27:36;;;;;;;0.73;0.73;;;14.50;99.90;;;;;;4900613;29;20486;-89
2021/05/25 08:30:03;;;;;;;0.50;0.50;;;14.50;99.90;;;;;;4893095;29;20461;-86
2021/05/25 08:32:28;;;;;;;0.52;0.52;;;14.50;99.90;;;;;;4918369;29;20439;-88
2021/05/25 08:34:54;;;;;;;0.70;0.70;;;14.40;99.90;;;;;;4905237;29;20423;-88
2021/05/25 08:37:20;;;;;;;0.75;0.70;;;14.50;99.90;;;;;;4912689;29;20414;-84
2021/05/25 08:39:45;;;;;;;1.27;0.70;;;14.40;99.90;;;;;;4926161;29;20395;-88
2021/05/25 08:42:14;;;;;;;1.98;0.65;;;14.40;99.90;;;;;;4910888;29;20426;-90
2021/05/25 08:44:39;;;;;;;0.70;0.63;;;14.50;99.90;;;;;;4891761;29;20407;-85
2021/05/25 08:47:06;;;;;;;1.57;1.33;;;14.50;99.90;;;;;;4899385;29;20427;-89
2021/05/25 08:49:33;;;;;;;1.40;0.80;;;14.60;99.90;;;;;;4895923;29;20491;-87
2021/05/25 08:52:00;;;;;;;0.80;0.80;;;14.70;99.90;;;;;;4898594;29;20439;-88
2021/05/25 08:54:25;;;;;;;2.20;0.80;;;14.80;99.90;;;;;;4919293;29;20396;-87
2021/05/25 08:56:51;;;;;;;1.20;0.70;;;15.00;99.90;;;;;;4907933;29;20392;-87
2021/05/25 08:59:16;;;;;;;0.88;0.88;;;15.00;99.90;;;;;;4916155;29;20411;-84
2021/05/25 09:01:43;;;;;;;1.10;0.80;;;15.10;99.90;;;;;;4895103;29;20425;-87
2021/05/25 09:04:12;;;;;;;0.80;0.80;;;15.10;99.90;;;;;;4888595;29;20399;-90
2021/05/25 09:06:39;;;;;;;0.63;0.63;;;15.10;99.90;;;;;;4887274;29;20466;-92
2021/05/25 09:09:11;;;;;;;1.50;0.60;;;15.10;99.90;;;;;;4936839;29;20466;-86
2021/05/25 09:12:02;;;;;;;3.70;0.82;;;15.10;99.90;;;;;;4916579;29;20414;-88
2021/05/25 09:14:28;;;;;;;0.70;0.70;;;15.20;99.90;;;;;;4927317;29;20427;-86
2021/05/25 09:17:16;;;;;;;0.65;0.65;;;15.00;99.90;;;;;;4915526;29;20461;-88
2021/05/25 09:19:55;;;;;;;0.60;0.60;;;14.90;99.90;;;;;;4929938;29;20592;-89
2021/05/25 09:22:33;;;;;;;1.90;0.73;;;14.80;99.90;;;;;;4936056;29;20402;-84
2021/05/25 09:25:06;;;;;;;0.70;0.70;;;14.60;99.90;;;;;;4914467;29;20402;-88
2021/05/25 09:27:36;;;;;;;0.70;0.70;;;14.60;99.90;;;;;;4914776;29;20387;-84
2021/05/25 09:30:19;;;;;;;0.90;0.90;;;14.60;99.90;;;;;;4903858;29;20411;-87
2021/05/25 09:32:57;;;;;;;0.80;0.65;;;14.40;99.90;;;;;;4913496;29;20395;-88
2021/05/25 09:35:23;;;;;;;0.60;0.60;;;14.40;99.90;;;;;;4905104;29;20387;-86
2021/05/25 09:37:53;;;;;;;1.85;0.75;;;14.40;99.90;;;;;;4898907;29;20396;-87
2021/05/25 09:40:21;;;;;;;0.60;0.60;;;14.40;99.90;;;;;;4898919;29;20498;-83
2021/05/25 09:42:47;;;;;;;2.75;0.95;;;14.50;99.90;;;;;;4911790;29;20396;-89
2021/05/25 09:45:15;;;;;;;0.70;0.70;;;14.70;99.90;;;;;;4884827;29;20615;-85
2021/05/25 09:47:42;;;;;;;1.05;0.82;;;14.90;99.90;;;;;;4903076;29;20412;-85
2021/05/25 09:50:10;;;;;;;1.70;0.68;;;15.20;99.90;;;;;;4896728;29;20404;-88
2021/05/25 09:52:36;;;;;;;0.90;0.90;;;15.60;99.90;;;;;;4915158;29;20501;-85
2021/05/25 09:55:09;;;;;;;0.70;0.70;;;15.70;99.90;;;;;;4913258;29;20410;-82
2021/05/25 09:57:46;;;;;;;0.77;0.60;;;15.70;99.90;;;;;;4912871;29;20466;-87
2021/05/25 10:00:34;;;;;;;0.60;0.60;;;15.80;99.90;;;;;;4905835;29;20412;-87
2021/05/25 10:03:11;;;;;;;0.70;0.70;;;15.60;99.90;;;;;;4933916;29;20422;-84
2021/05/25 10:05:36;;;;;;;0.70;0.70;;;15.70;99.90;;;;;;4931308;29;20436;-90
2021/05/25 10:08:05;;;;;;;0.65;0.65;;;15.90;99.90;;;;;;4912053;29;20459;-85
2021/05/25 10:10:32;;;;;;;0.70;0.70;;;16.40;99.90;;;;;;4891569;29;20665;-84
2021/05/25 10:12:58;;;;;;;0.60;0.60;;;16.60;99.90;;;;;;4900289;29;20411;-86
2021/05/25 10:15:25;;;;;;;0.50;0.50;;;16.60;99.90;;;;;;4936723;29;20419;-85
2021/05/25 10:20:26;;;;;;;0.63;0.63;;;16.30;99.90;;;;;;4934210;29;20416;-87
2021/05/25 10:22:52;;;;;;;0.68;0.68;;;16.20;99.90;;;;;;4906000;29;20387;-87
2021/05/25 10:25:17;;;;;;;0.70;0.70;;;16.20;99.90;;;;;;4903683;29;20409;-84
2021/05/25 10:27:45;;;;;;;0.50;0.50;;;16.40;99.90;;;;;;4919714;29;20405;-85
2021/05/25 10:30:23;;;;;;;0.60;0.60;;;16.80;99.90;;;;;;4893646;29;20459;-87
2021/05/25 10:32:52;;;;;;;0.57;0.57;;;17.10;99.90;;;;;;4924399;29;20404;-89
2021/05/25 10:35:19;;;;;;;0.57;0.57;;;17.10;99.90;;;;;;4913261;29;20407;-86
2021/05/25 10:38:03;;;;;;;0.60;0.60;;;17.20;99.90;;;;;;4902159;29;20539;-83
2021/05/25 10:40:39;;;;;;;0.70;0.70;;;17.30;99.90;;;;;;4913561;29;20412;-85
2021/05/25 10:43:35;;;;;;;0.50;0.50;;;17.30;99.90;;;;;;4924714;29;20471;-82
2021/05/25 10:46:10;;;;;;;0.65;0.65;;;17.40;99.90;;;;;;4926092;29;20417;-86
2021/05/25 10:49:08;;;;;;;1.00;0.75;;;17.40;99.90;;;;;;4944151;29;20438;-82
2021/05/25 10:52:03;;;;;;;1.40;0.83;;;17.50;99.90;;;;;;4912839;29;20821;-83
2021/05/25 10:54:45;;;;;;;1.17;0.75;;;17.60;99.90;;;;;;4934104;29;20458;-83
2021/05/25 10:57:29;;;;;;;0.90;0.70;;;17.90;99.90;;;;;;4900054;29;20431;-82
2021/05/25 11:00:03;;;;;;;0.63;0.63;;;18.00;99.90;;;;;;4932811;28;20419;-82
2021/05/25 11:02:48;;;;;;;0.68;0.60;;;18.00;99.90;;;;;;4941969;29;20467;-87
2021/05/25 11:05:35;;;;;;;0.43;0.43;;;17.60;99.90;;;;;;4904967;29;20438;-86
2021/05/25 11:08:10;;;;;;;0.52;0.52;;;17.60;99.90;;;;;;4926912;29;20419;-84
2021/05/25 11:10:40;;;;;;;0.75;0.70;;;17.30;99.90;;;;;;4915607;29;20387;-91
2021/05/25 11:13:15;;;;;;;0.60;0.60;;;17.00;99.90;;;;;;4907154;29;20396;-83
2021/05/25 11:15:59;;;;;;;1.07;0.80;;;16.90;99.90;;;;;;4940903;29;20399;-87
2021/05/25 11:18:29;;;;;;;0.60;0.60;;;16.80;99.90;;;;;;4930268;29;20386;-86
2021/05/25 11:21:13;;;;;;;0.60;0.60;;;16.60;99.90;;;;;;4892414;29;20419;-87
2021/05/25 11:23:46;;;;;;;0.50;0.50;;;16.80;99.90;;;;;;4901514;29;20412;-86
2021/05/25 11:26:49;;;;;;;0.68;0.68;;;17.70;99.90;;;;;;4912445;29;20423;-83
2021/05/25 11:29:18;;;;;;;0.60;0.60;;;17.90;99.90;;;;;;4930829;29;20451;-83
2021/05/25 11:31:44;;;;;;;0.70;0.60;;;17.90;99.90;;;;;;4922739;29;20410;-84
2021/05/25 11:34:11;;;;;;;0.67;0.67;;;18.00;99.90;;;;;;4910222;29;20414;-83
2021/05/25 11:36:45;;;;;;;0.60;0.60;;;18.30;99.90;;;;;;4918392;29;20487;-82
2021/05/25 11:39:11;;;;;;;0.43;0.43;;;18.30;99.90;;;;;;4903145;29;20419;-81
2021/05/25 11:41:41;;;;;;;0.60;0.60;;;18.50;99.40;;;;;;4918138;29;20416;-81
2021/05/25 11:44:12;;;;;;;0.50;0.50;;;18.80;99.90;;;;;;4916261;28;20493;-81
2021/05/25 11:47:05;;;;;;;0.50;0.50;;;19.30;99.20;;;;;;4914103;29;20410;-80
2021/05/25 11:49:40;;;;;;;0.82;0.70;;;19.30;95.60;;;;;;4950674;29;20402;-80
2021/05/25 11:56:11;;;;;;;0.50;0.50;;;20.50;98.80;;;;;;4926139;29;20419;-82
2021/05/25 11:59:02;;;;;;;0.70;0.70;;;21.10;94.70;;;;;;4945478;29;20429;-80
2021/05/25 12:01:53;;;;;;;0.68;0.68;;;21.20;93.10;;;;;;4929920;29;20431;-80
2021/05/25 12:04:48;;;;;;;0.40;0.40;;;21.40;91.80;;;;;;4902913;29;20429;-82
2021/05/25 12:07:31;;;;;;;0.50;0.50;;;21.70;87.70;;;;;;4923984;29;20423;-81
2021/05/25 12:10:38;;;;;;;0.55;0.55;;;21.10;88.20;;;;;;4929445;29;20485;-81
2021/05/25 12:13:08;;;;;;;0.60;0.60;;;20.50;88.50;;;;;;4918596;29;20412;-81
2021/05/25 12:16:18;;;;;;;0.70;0.60;;;20.20;92.10;;;;;;4924477;29;20463;-80
2021/05/25 12:18:44;;;;;;;0.45;0.45;;;20.00;95.70;;;;;;4876259;29;20412;-79
2021/05/25 12:21:11;;;;;;;0.50;0.50;;;19.50;97.50;;;;;;4918092;29;20419;-80
2021/05/25 12:23:44;;;;;;;0.93;0.70;;;19.70;99.90;;;;;;4927459;29;20403;-81
2021/05/25 12:26:13;;;;;;;0.50;0.50;;;20.20;97.90;;;;;;4923580;29;20407;-80
2021/05/25 12:28:46;;;;;;;0.70;0.70;;;20.50;99.50;;;;;;4932849;29;20423;-81
2021/05/25 12:31:12;;;;;;;0.40;0.40;;;20.70;96.40;;;;;;4919081;29;20423;-80
2021/05/25 12:33:39;;;;;;;0.40;0.40;;;20.60;97.20;;;;;;4928001;29;20776;-82
2021/05/25 12:36:37;;;;;;;0.35;0.35;;;20.30;93.10;;;;;;4907959;29;20475;-81
2021/05/25 12:39:34;;;;;;;0.60;0.60;;;20.00;95.20;;;;;;4936041;29;20403;-82
2021/05/25 12:42:24;;;;;;;0.50;0.50;;;19.80;95.30;;;;;;4911852;29;20423;-81
2021/05/25 12:45:21;;;;;;;0.40;0.40;;;19.70;93.50;;;;;;4929530;29;20423;-80
2021/05/25 12:47:52;;;;;;;0.63;0.52;;;19.90;96.30;;;;;;4924449;29;20869;-80
2021/05/25 12:50:42;;;;;;;0.45;0.45;;;19.80;91.50;;;;;;4920204;29;20483;-79
2021/05/25 12:53:19;;;;;;;0.47;0.47;;;20.50;91.20;;;;;;4935378;29;20403;-81
2021/05/25 12:58:57;;;;;;;0.30;0.30;;;19.90;88.70;;;;;;4921592;29;20410;-80
2021/05/25 13:01:34;;;;;;;0.40;0.40;;;19.60;88.80;;;;;;4925193;29;20416;-81
2021/05/25 13:04:06;;;;;;;0.50;0.50;;;20.10;90.90;;;;;;4910525;29;20760;-82
2021/05/25 13:07:01;;;;;;;0.50;0.50;;;20.70;85.20;;;;;;4930729;29;20401;-80
2021/05/25 13:09:43;;;;;;;0.52;0.52;;;21.00;82.10;;;;;;4926355;29;20404;-81